Hlavní strana
METAR-TAF:

METAR-TAF

Letiště :

Guanare, Venezuela

zeměpisná šířka: 09-01N, zeměpisná délka: 069-44W, výška: 163 m

Aktuální stav počasí

Zpráva byla vytvořena před 13 hodinami a 41 minutami, v 05:02 UTC
Západojihozápadní vítr 2 kt
Teplota 26°C
Vlhkost vzduchu 89%
Tlak 1012 hPa

METAR: SVGU 120502Z AUTO 25002KT NCD 26/24 Q1012

Čas: 14:43 (18:43 UTC)


TAF: chybějící

Stav a předpovědi počasí z více než 4 000 letišť (zprávy METAR a TAF).

Červené a žluté tečky na mapě představují dostupné meteorologické stanice.

Když kurzor umístíte na tečku, zobrazí se název stanice.

Pak kliknutím zobrazíte stav a předpověď počasí.

Chcete-li změnit mapu, kliknutím na zelené tlačítko se znaménkem +mapu přiblížíte, kliknutím na zelené tlačítko se znaménkem – mapu oddálíte a kliknutím na zelené šipky přejdete na sousední mapy.


METAR-TAF: